createdAt,value
2022-09-17T00:01:21.910Z,100.00
2022-09-17T00:06:46.812Z,100.00
2022-09-17T00:12:12.427Z,100.00
2022-09-17T00:17:37.571Z,100.00
2022-09-17T00:23:02.252Z,100.00
2022-09-17T00:28:27.760Z,100.00
2022-09-17T00:33:51.389Z,100.00
2022-09-17T00:39:16.673Z,100.00
2022-09-17T00:44:49.120Z,100.00
2022-09-17T00:50:18.600Z,100.00
2022-09-17T00:55:46.445Z,100.00
2022-09-17T01:01:12.876Z,100.00
2022-09-17T01:06:46.173Z,100.00
2022-09-17T01:12:36.710Z,100.00
2022-09-17T01:18:27.170Z,100.00
2022-09-17T01:24:12.084Z,100.00
2022-09-17T01:29:59.807Z,100.00
2022-09-17T01:35:38.188Z,100.00
2022-09-17T01:41:07.979Z,100.00
2022-09-17T01:46:38.171Z,100.00
2022-09-17T01:52:06.563Z,100.00
2022-09-17T01:57:36.811Z,100.00
2022-09-17T02:03:05.712Z,100.00
2022-09-17T02:08:38.216Z,100.00
2022-09-17T02:14:08.537Z,100.00
2022-09-17T02:19:38.124Z,100.00
2022-09-17T02:25:07.767Z,100.00
2022-09-17T02:30:37.254Z,100.00
2022-09-17T02:36:04.351Z,100.00
2022-09-17T02:41:50.332Z,100.00
2022-09-17T02:47:36.694Z,100.00
2022-09-17T02:53:19.912Z,100.00
2022-09-17T02:58:57.346Z,100.00
2022-09-17T03:04:25.543Z,100.00
2022-09-17T03:09:51.068Z,100.00
2022-09-17T03:15:21.233Z,100.00
2022-09-17T03:20:49.906Z,100.00
2022-09-17T03:26:19.006Z,100.00
2022-09-17T03:31:45.427Z,100.00
2022-09-17T03:37:14.168Z,100.00
2022-09-17T03:42:39.183Z,100.00
2022-09-17T03:48:09.321Z,100.00
2022-09-17T03:53:37.892Z,100.00
2022-09-17T03:59:03.336Z,100.00
2022-09-17T04:04:29.561Z,100.00
2022-09-17T04:09:58.931Z,100.00
2022-09-17T04:15:25.540Z,100.00
2022-09-17T04:20:56.368Z,100.00
2022-09-17T04:26:24.970Z,100.00
2022-09-17T04:31:49.820Z,100.00
2022-09-17T04:37:16.984Z,100.00
2022-09-17T04:42:46.028Z,100.00
2022-09-17T04:48:14.117Z,100.00
2022-09-17T04:53:44.419Z,100.00
2022-09-17T04:59:09.361Z,100.00
2022-09-17T05:04:34.826Z,100.00
2022-09-17T05:10:02.719Z,100.00
2022-09-17T05:15:32.080Z,100.00
2022-09-17T05:20:57.017Z,100.00
2022-09-17T05:26:23.857Z,100.00
2022-09-17T05:31:48.511Z,93.03
2022-09-17T05:37:13.879Z,100.00
2022-09-17T05:42:39.097Z,100.00
2022-09-17T05:48:04.473Z,100.00
2022-09-17T05:53:28.668Z,100.00
2022-09-17T05:58:58.076Z,100.00
2022-09-17T06:04:21.984Z,100.00
2022-09-17T06:09:46.504Z,99.59
2022-09-17T06:15:14.716Z,96.25
2022-09-17T06:20:40.492Z,94.23
2022-09-17T06:26:06.771Z,92.61
2022-09-17T06:31:32.514Z,76.54
2022-09-17T06:36:57.251Z,61.13
2022-09-17T06:42:21.424Z,60.28
2022-09-17T06:47:47.382Z,57.90
2022-09-17T06:53:12.181Z,53.27
2022-09-17T06:58:38.186Z,56.60
2022-09-17T07:04:04.510Z,61.38
2022-09-17T07:09:28.853Z,68.21
2022-09-17T07:14:53.923Z,72.17
2022-09-17T07:20:20.437Z,81.89
2022-09-17T07:25:44.760Z,87.28
2022-09-17T07:31:15.235Z,91.12
2022-09-17T07:36:44.319Z,94.01
2022-09-17T07:42:09.817Z,95.80
2022-09-17T07:47:40.156Z,97.46
2022-09-17T07:53:06.392Z,98.33
2022-09-17T07:58:32.543Z,97.67
2022-09-17T08:03:56.956Z,97.02
2022-09-17T08:09:23.546Z,97.42
2022-09-17T08:14:48.101Z,96.86
2022-09-17T08:20:12.911Z,94.35
2022-09-17T08:25:40.846Z,93.83
2022-09-17T08:31:08.315Z,94.25
2022-09-17T08:36:32.502Z,93.17
2022-09-17T08:42:10.602Z,87.57
2022-09-17T08:47:37.831Z,88.59
2022-09-17T08:53:23.453Z,82.97
2022-09-17T08:59:04.240Z,79.04
2022-09-17T09:04:48.588Z,76.05
2022-09-17T09:10:20.982Z,77.68
2022-09-17T09:15:53.274Z,80.85
2022-09-17T09:21:27.630Z,82.61
2022-09-17T09:27:03.492Z,82.22
2022-09-17T09:32:52.548Z,82.54
2022-09-17T09:38:29.275Z,83.33
2022-09-17T09:44:04.456Z,82.99
2022-09-17T09:49:53.637Z,81.92
2022-09-17T09:55:36.392Z,81.44
2022-09-17T10:01:00.703Z,82.75
2022-09-17T10:06:31.069Z,82.23
2022-09-17T10:12:04.087Z,79.83
2022-09-17T10:17:29.321Z,79.43
2022-09-17T10:22:55.320Z,80.04
2022-09-17T10:28:42.537Z,80.06
2022-09-17T10:34:06.140Z,77.47
2022-09-17T10:39:36.585Z,77.59
2022-09-17T10:45:01.956Z,77.59
2022-09-17T10:50:30.133Z,78.67
2022-09-17T10:56:06.951Z,84.09
2022-09-17T11:01:49.335Z,87.96
2022-09-17T11:07:44.330Z,89.27
2022-09-17T11:13:22.707Z,92.52
2022-09-17T11:18:54.754Z,94.71
2022-09-17T11:25:04.521Z,98.54
2022-09-17T11:30:34.887Z,100.00
2022-09-17T11:36:04.440Z,100.00
2022-09-17T11:41:32.740Z,100.00
2022-09-17T11:47:05.128Z,100.00
2022-09-17T11:52:34.799Z,100.00
2022-09-17T11:58:04.107Z,99.57
2022-09-17T12:03:35.806Z,97.37
2022-09-17T12:09:05.953Z,99.78
2022-09-17T12:14:39.972Z,96.71
2022-09-17T12:20:12.676Z,94.68
2022-09-17T12:25:45.551Z,98.81
2022-09-17T12:31:20.540Z,100.00
2022-09-17T12:36:53.436Z,100.00
2022-09-17T12:42:35.088Z,100.00
2022-09-17T12:48:24.720Z,98.92
2022-09-17T12:54:04.197Z,100.00
2022-09-17T12:59:31.566Z,99.79
2022-09-17T13:05:22.672Z,98.80
2022-09-17T13:11:18.018Z,99.09
2022-09-17T13:16:49.893Z,100.00
2022-09-17T13:22:18.689Z,100.00
2022-09-17T13:27:44.445Z,100.00
2022-09-17T13:33:10.891Z,97.89
2022-09-17T13:38:43.722Z,97.14
2022-09-17T13:44:10.728Z,97.46
2022-09-17T13:49:35.542Z,94.33
2022-09-17T13:55:01.646Z,91.63
2022-09-17T14:00:53.145Z,90.03
2022-09-17T14:06:49.494Z,90.08
2022-09-17T14:12:52.252Z,90.46
2022-09-17T14:18:39.238Z,92.58
2022-09-17T14:24:15.052Z,93.65
2022-09-17T14:30:07.058Z,95.68
2022-09-17T14:35:36.662Z,96.41
2022-09-17T14:41:07.710Z,96.88
2022-09-17T14:46:37.547Z,96.11
2022-09-17T14:52:04.121Z,95.58
2022-09-17T14:57:29.623Z,95.94
2022-09-17T15:02:59.564Z,96.62
2022-09-17T15:08:26.131Z,97.08
2022-09-17T15:13:53.286Z,97.03
2022-09-17T15:19:24.507Z,99.87
2022-09-17T15:24:54.242Z,100.00
2022-09-17T15:30:20.885Z,100.00
2022-09-17T15:36:00.550Z,100.00
2022-09-17T15:41:34.799Z,100.00
2022-09-17T15:47:32.199Z,100.00
2022-09-17T15:53:14.529Z,100.00
2022-09-17T15:58:54.234Z,100.00
2022-09-17T16:04:26.355Z,100.00
2022-09-17T16:09:53.167Z,100.00
2022-09-17T16:15:22.628Z,100.00
2022-09-17T16:20:46.552Z,100.00
2022-09-17T16:26:15.535Z,100.00
2022-09-17T16:31:41.416Z,100.00
2022-09-17T16:37:06.258Z,100.00
2022-09-17T16:42:33.932Z,100.00
2022-09-17T16:48:03.265Z,100.00
2022-09-17T16:53:28.012Z,100.00
2022-09-17T16:58:55.709Z,100.00
2022-09-17T17:04:21.484Z,100.00
2022-09-17T17:09:46.164Z,100.00
2022-09-17T17:15:10.940Z,100.00
2022-09-17T17:20:37.557Z,100.00
2022-09-17T17:26:07.269Z,100.00
2022-09-17T17:31:31.048Z,100.00
2022-09-17T17:36:57.058Z,100.00
2022-09-17T17:42:21.596Z,100.00
2022-09-17T17:47:46.234Z,100.00
2022-09-17T17:53:11.843Z,100.00
2022-09-17T17:58:36.928Z,100.00
2022-09-17T18:04:03.967Z,100.00
2022-09-17T18:09:30.869Z,100.00
2022-09-17T18:14:54.615Z,100.00
2022-09-17T18:20:19.430Z,100.00
2022-09-17T18:25:53.535Z,100.00
2022-09-17T18:31:22.894Z,100.00
2022-09-17T18:36:50.939Z,100.00
2022-09-17T18:42:20.391Z,100.00
2022-09-17T18:47:44.651Z,100.00
2022-09-17T18:53:08.902Z,100.00
2022-09-17T18:58:34.262Z,100.00
2022-09-17T19:03:59.482Z,100.00
2022-09-17T19:09:23.983Z,100.00
2022-09-17T19:14:50.700Z,100.00
2022-09-17T19:20:19.812Z,100.00
2022-09-17T19:25:45.040Z,100.00
2022-09-17T19:31:12.597Z,100.00
2022-09-17T19:36:37.144Z,100.00
2022-09-17T19:42:03.233Z,100.00
2022-09-17T19:47:30.214Z,100.00
2022-09-17T19:52:54.245Z,100.00
2022-09-17T19:58:18.281Z,100.00
2022-09-17T20:03:45.514Z,100.00
2022-09-17T20:09:10.743Z,100.00
2022-09-17T20:14:34.998Z,100.00
2022-09-17T20:20:01.522Z,100.00
2022-09-17T20:25:27.532Z,100.00
2022-09-17T20:31:00.991Z,100.00
2022-09-17T20:36:28.200Z,100.00
2022-09-17T20:41:54.265Z,100.00
2022-09-17T20:47:18.549Z,100.00
2022-09-17T20:52:45.124Z,100.00
2022-09-17T20:58:09.906Z,100.00
2022-09-17T21:03:34.755Z,100.00
2022-09-17T21:09:01.494Z,100.00
2022-09-17T21:14:27.289Z,100.00
2022-09-17T21:19:52.587Z,100.00
2022-09-17T21:25:17.899Z,100.00
2022-09-17T21:30:43.889Z,100.00
2022-09-17T21:36:11.350Z,100.00
2022-09-17T21:41:42.102Z,100.00
2022-09-17T21:47:10.413Z,100.00
2022-09-17T21:52:36.373Z,100.00
2022-09-17T21:58:02.117Z,100.00
2022-09-17T22:03:25.893Z,100.00
2022-09-17T22:08:51.471Z,100.00
2022-09-17T22:14:21.293Z,100.00
2022-09-17T22:19:45.532Z,100.00
2022-09-17T22:25:10.630Z,100.00
2022-09-17T22:30:37.808Z,100.00
2022-09-17T22:36:05.836Z,100.00
2022-09-17T22:41:31.835Z,100.00
2022-09-17T22:46:57.911Z,100.00
2022-09-17T22:52:23.307Z,100.00
2022-09-17T22:57:48.008Z,100.00
2022-09-17T23:03:13.570Z,100.00
2022-09-17T23:08:38.559Z,100.00
2022-09-17T23:14:07.233Z,100.00
2022-09-17T23:19:32.568Z,100.00
2022-09-17T23:24:57.028Z,100.00
2022-09-17T23:30:23.023Z,100.00
2022-09-17T23:35:48.586Z,100.00
2022-09-17T23:41:14.928Z,100.00
2022-09-17T23:46:38.422Z,100.00
2022-09-17T23:52:04.164Z,100.00
2022-09-17T23:57:30.422Z,100.00
